createdAt,value
2018-06-30T00:00:06.111Z,0.00
2018-06-30T00:01:06.131Z,0.00
2018-06-30T00:02:06.154Z,0.00
2018-06-30T00:03:06.183Z,0.00
2018-06-30T00:04:06.207Z,0.00
2018-06-30T00:05:06.227Z,0.00
2018-06-30T00:06:06.249Z,0.00
2018-06-30T00:07:06.275Z,0.00
2018-06-30T00:08:06.300Z,0.00
2018-06-30T00:09:06.320Z,0.00
2018-06-30T00:10:06.346Z,0.00
2018-06-30T00:11:06.364Z,0.00
2018-06-30T00:12:06.389Z,0.00
2018-06-30T00:13:06.415Z,0.00
2018-06-30T00:14:06.439Z,0.00
2018-06-30T00:15:06.462Z,0.00
2018-06-30T00:16:06.482Z,0.00
2018-06-30T00:17:06.510Z,0.00
2018-06-30T00:18:06.533Z,0.00
2018-06-30T00:19:06.559Z,0.00
2018-06-30T00:20:06.583Z,0.00
2018-06-30T00:21:06.601Z,0.00
2018-06-30T00:22:06.623Z,0.00
2018-06-30T00:23:06.656Z,0.00
2018-06-30T00:24:06.673Z,0.00
2018-06-30T00:25:06.699Z,0.00
2018-06-30T00:26:06.722Z,0.00
2018-06-30T00:27:06.743Z,0.00
2018-06-30T00:28:06.769Z,0.00
2018-06-30T00:29:06.795Z,0.00
2018-06-30T00:30:06.824Z,0.00
2018-06-30T00:31:06.834Z,0.00
2018-06-30T00:32:06.858Z,0.00
2018-06-30T00:33:06.884Z,0.00
2018-06-30T00:34:06.906Z,0.00
2018-06-30T00:35:06.934Z,0.00
2018-06-30T00:36:06.957Z,0.00
2018-06-30T00:37:06.975Z,0.00
2018-06-30T00:38:06.998Z,0.00
2018-06-30T00:39:07.027Z,0.00
2018-06-30T00:40:07.050Z,0.00
2018-06-30T00:41:07.077Z,0.00
2018-06-30T00:42:07.097Z,0.00
2018-06-30T00:43:07.121Z,0.00
2018-06-30T00:44:07.143Z,0.00
2018-06-30T00:45:07.169Z,0.00
2018-06-30T00:46:07.191Z,0.00
2018-06-30T00:47:07.212Z,0.00
2018-06-30T00:48:07.235Z,0.00
2018-06-30T00:49:07.263Z,0.00
2018-06-30T00:50:07.281Z,0.00
2018-06-30T00:51:07.307Z,0.00
2018-06-30T00:52:07.331Z,0.00
2018-06-30T00:53:07.352Z,0.00
2018-06-30T00:54:07.376Z,0.00
2018-06-30T00:55:07.405Z,0.00
2018-06-30T00:56:07.429Z,0.00
2018-06-30T00:57:07.449Z,0.00
2018-06-30T00:58:07.477Z,0.00
2018-06-30T00:59:07.491Z,0.00
2018-06-30T01:00:07.514Z,0.00
2018-06-30T01:01:07.547Z,0.00
2018-06-30T01:02:07.564Z,0.00
2018-06-30T01:03:07.584Z,0.00
2018-06-30T01:04:07.608Z,0.00
2018-06-30T01:05:07.636Z,0.00
2018-06-30T01:06:07.656Z,0.00
2018-06-30T01:07:07.690Z,0.00
2018-06-30T01:08:07.706Z,0.00
2018-06-30T01:09:07.725Z,0.00
2018-06-30T01:10:07.748Z,0.00
2018-06-30T01:11:07.778Z,0.00
2018-06-30T01:12:07.802Z,0.00
2018-06-30T01:13:07.823Z,0.00
2018-06-30T01:14:07.847Z,0.00
2018-06-30T01:15:07.867Z,0.00
2018-06-30T01:16:07.892Z,0.00
2018-06-30T01:17:07.918Z,0.00
2018-06-30T01:18:07.939Z,0.00
2018-06-30T01:19:07.960Z,0.00
2018-06-30T01:20:07.984Z,0.00
2018-06-30T01:21:08.006Z,0.00
2018-06-30T01:22:08.029Z,0.00
2018-06-30T01:23:08.055Z,0.00
2018-06-30T01:24:08.079Z,0.00
2018-06-30T01:25:08.100Z,0.00
2018-06-30T01:26:08.124Z,0.00
2018-06-30T01:27:08.150Z,0.00
2018-06-30T01:28:08.175Z,0.00
2018-06-30T01:29:08.199Z,0.00
2018-06-30T01:30:08.219Z,0.00
2018-06-30T01:31:08.240Z,0.00
2018-06-30T01:32:08.262Z,0.00
2018-06-30T01:33:08.287Z,0.00
2018-06-30T01:34:08.310Z,0.00
2018-06-30T01:35:08.338Z,0.00
2018-06-30T01:36:08.365Z,0.00
2018-06-30T01:37:08.382Z,0.00
2018-06-30T01:38:08.407Z,0.00
2018-06-30T01:39:08.428Z,0.00
2018-06-30T01:40:08.449Z,0.00
2018-06-30T01:41:08.476Z,0.00
2018-06-30T01:42:08.498Z,0.00
2018-06-30T01:43:08.520Z,0.00
2018-06-30T01:44:08.543Z,0.00
2018-06-30T01:45:08.564Z,0.00
2018-06-30T01:46:08.587Z,0.00
2018-06-30T01:47:08.614Z,0.00
2018-06-30T01:48:08.639Z,0.00
2018-06-30T01:49:08.664Z,0.00
2018-06-30T01:50:08.680Z,0.00
2018-06-30T01:51:08.733Z,0.00
2018-06-30T01:52:08.732Z,0.00
2018-06-30T01:53:08.756Z,0.00
2018-06-30T01:54:08.779Z,0.00
2018-06-30T01:55:08.799Z,0.00
2018-06-30T01:56:08.826Z,0.00
2018-06-30T01:57:08.848Z,0.00
2018-06-30T01:58:08.870Z,0.00
2018-06-30T01:59:08.890Z,0.00
2018-06-30T02:00:08.914Z,0.00
2018-06-30T02:01:08.939Z,0.00
2018-06-30T02:02:08.962Z,0.00
2018-06-30T02:03:08.988Z,0.00
2018-06-30T02:04:09.012Z,0.00
2018-06-30T02:05:09.034Z,0.00
2018-06-30T02:06:09.077Z,0.00
2018-06-30T02:07:09.087Z,0.00
2018-06-30T02:08:09.106Z,4.00
2018-06-30T02:09:09.129Z,4.00
2018-06-30T02:10:09.149Z,0.00
2018-06-30T02:11:09.173Z,0.00
2018-06-30T02:12:09.194Z,0.00
2018-06-30T02:13:09.222Z,0.00
2018-06-30T02:14:09.246Z,4.00
2018-06-30T02:15:09.265Z,4.00
2018-06-30T02:16:09.287Z,4.00
2018-06-30T02:17:09.309Z,0.00
2018-06-30T02:18:09.333Z,4.00
2018-06-30T02:19:09.361Z,4.00
2018-06-30T02:20:09.383Z,0.00
2018-06-30T02:21:09.401Z,4.00
2018-06-30T02:22:09.424Z,4.00
2018-06-30T02:23:09.452Z,4.00
2018-06-30T02:24:09.475Z,8.00
2018-06-30T02:25:09.500Z,4.00
2018-06-30T02:26:09.523Z,8.00
2018-06-30T02:27:09.542Z,8.00
2018-06-30T02:28:09.565Z,8.00
2018-06-30T02:29:09.591Z,8.00
2018-06-30T02:30:09.614Z,8.00
2018-06-30T02:31:09.640Z,8.00
2018-06-30T02:32:09.657Z,12.00
2018-06-30T02:33:09.683Z,16.00
2018-06-30T02:34:09.706Z,16.00
2018-06-30T02:35:09.743Z,16.00
2018-06-30T02:36:09.756Z,20.00
2018-06-30T02:37:09.772Z,20.00
2018-06-30T02:38:09.798Z,24.00
2018-06-30T02:39:09.874Z,24.00
2018-06-30T02:40:09.846Z,28.00
2018-06-30T02:41:09.870Z,32.00
2018-06-30T02:42:09.894Z,32.00
2018-06-30T02:43:09.914Z,36.00
2018-06-30T02:44:09.938Z,40.00
2018-06-30T02:45:09.962Z,40.00
2018-06-30T02:46:09.993Z,44.00
2018-06-30T02:47:10.005Z,48.00
2018-06-30T02:48:10.027Z,52.00
2018-06-30T02:49:10.055Z,56.00
2018-06-30T02:50:10.075Z,60.00
2018-06-30T02:51:10.104Z,68.00
2018-06-30T02:52:10.125Z,72.00
2018-06-30T02:53:10.148Z,76.00
2018-06-30T02:54:10.178Z,80.00
2018-06-30T02:55:10.195Z,88.00
2018-06-30T02:56:10.218Z,96.00
2018-06-30T02:57:10.241Z,100.00
2018-06-30T02:58:10.263Z,108.00
2018-06-30T02:59:10.281Z,116.00
2018-06-30T03:00:10.305Z,124.00
2018-06-30T03:01:10.336Z,132.00
2018-06-30T03:02:10.357Z,140.00
2018-06-30T03:03:10.376Z,148.00
2018-06-30T03:04:10.400Z,160.00
2018-06-30T03:05:10.424Z,172.00
2018-06-30T03:06:10.443Z,180.00
2018-06-30T03:07:10.474Z,196.00
2018-06-30T03:08:10.494Z,208.00
2018-06-30T03:09:10.513Z,224.00
2018-06-30T03:10:10.538Z,244.00
2018-06-30T03:11:10.565Z,264.00
2018-06-30T03:12:10.588Z,288.00
2018-06-30T03:13:10.611Z,316.00
2018-06-30T03:14:10.636Z,348.00
2018-06-30T03:15:10.654Z,392.00
2018-06-30T03:16:10.680Z,472.00
2018-06-30T03:17:10.703Z,636.00
2018-06-30T03:18:10.725Z,812.00
2018-06-30T03:19:10.749Z,928.00
2018-06-30T03:20:10.774Z,1008.00
2018-06-30T03:21:10.795Z,1096.00
2018-06-30T03:22:10.817Z,1184.00
2018-06-30T03:23:10.846Z,1300.00
2018-06-30T03:24:10.867Z,1412.00
2018-06-30T03:25:10.887Z,1528.00
2018-06-30T03:26:10.910Z,1652.00
2018-06-30T03:27:10.937Z,1788.00
2018-06-30T03:28:10.960Z,1928.00
2018-06-30T03:29:10.983Z,2072.00
2018-06-30T03:30:11.013Z,2228.00
2018-06-30T03:31:11.030Z,2380.00
2018-06-30T03:32:11.051Z,2532.00
2018-06-30T03:33:11.079Z,2696.00
2018-06-30T03:34:11.104Z,2852.00
2018-06-30T03:35:11.123Z,3016.00
2018-06-30T03:36:11.147Z,3180.00
2018-06-30T03:37:11.170Z,3348.00
2018-06-30T03:38:11.194Z,3516.00
2018-06-30T03:39:11.221Z,3676.00
2018-06-30T03:40:11.247Z,3836.00
2018-06-30T03:41:11.271Z,3996.00
2018-06-30T03:42:11.295Z,4144.00
2018-06-30T03:43:11.315Z,4312.00
2018-06-30T03:44:11.340Z,4464.00
2018-06-30T03:45:11.368Z,4644.00
2018-06-30T03:46:11.410Z,4804.00
2018-06-30T03:47:11.420Z,5040.00
2018-06-30T03:48:11.446Z,5284.00
2018-06-30T03:49:11.466Z,5444.00
2018-06-30T03:50:11.490Z,5552.00
2018-06-30T03:51:11.520Z,5564.00
2018-06-30T03:52:11.547Z,5420.00
2018-06-30T03:53:11.575Z,5244.00
2018-06-30T03:54:11.596Z,5232.00
2018-06-30T03:55:11.619Z,5220.00
2018-06-30T03:56:11.647Z,5164.00
2018-06-30T03:57:11.674Z,5068.00
2018-06-30T03:58:11.698Z,4936.00
2018-06-30T03:59:11.721Z,4816.00
2018-06-30T04:00:11.746Z,4732.00
2018-06-30T04:01:11.774Z,4724.00
2018-06-30T04:02:11.796Z,4804.00
2018-06-30T04:03:11.826Z,5008.00
2018-06-30T04:04:11.855Z,5548.00
2018-06-30T04:05:11.877Z,6240.00
2018-06-30T04:06:11.902Z,6728.00
2018-06-30T04:07:11.935Z,6912.00
2018-06-30T04:08:11.957Z,7088.00
2018-06-30T04:09:11.983Z,7360.00
2018-06-30T04:10:12.008Z,7568.00
2018-06-30T04:11:12.032Z,7928.00
2018-06-30T04:12:12.059Z,8412.00
2018-06-30T04:13:12.088Z,8804.00
2018-06-30T04:14:12.114Z,9140.00
2018-06-30T04:15:12.135Z,9440.00
2018-06-30T04:16:12.163Z,9700.00
2018-06-30T04:17:12.192Z,9992.00
2018-06-30T04:18:12.225Z,10284.00
2018-06-30T04:19:12.250Z,10520.00
2018-06-30T04:20:12.282Z,10788.00
2018-06-30T04:21:12.299Z,11056.00
2018-06-30T04:22:12.386Z,11328.00
2018-06-30T04:23:12.356Z,11592.00
2018-06-30T04:24:12.387Z,11964.00
2018-06-30T04:25:12.416Z,12532.00
2018-06-30T04:26:12.447Z,13448.00
2018-06-30T04:27:12.470Z,14764.00
2018-06-30T04:28:12.496Z,16544.00
2018-06-30T04:29:12.528Z,18592.00
2018-06-30T04:30:12.560Z,20224.00
2018-06-30T04:31:12.583Z,21472.00
2018-06-30T04:32:12.612Z,21792.00
2018-06-30T04:33:12.639Z,21920.00
2018-06-30T04:34:12.670Z,22432.00
2018-06-30T04:35:12.704Z,23264.00
2018-06-30T04:36:12.732Z,23584.00
2018-06-30T04:37:12.760Z,23584.00
2018-06-30T04:38:12.787Z,24128.00
2018-06-30T04:39:12.824Z,24320.00
2018-06-30T04:40:12.853Z,24448.00
2018-06-30T04:41:12.882Z,25024.00
2018-06-30T04:42:12.912Z,25824.00
2018-06-30T04:43:12.937Z,27072.00
2018-06-30T04:44:12.971Z,27648.00
2018-06-30T04:45:13.046Z,27840.00
2018-06-30T04:46:13.036Z,27776.00
2018-06-30T04:47:13.065Z,27840.00
2018-06-30T04:48:13.095Z,28640.00
2018-06-30T04:49:13.125Z,28640.00
2018-06-30T04:50:13.155Z,29792.00
2018-06-30T04:51:13.191Z,29920.00
2018-06-30T04:52:13.229Z,30048.00
2018-06-30T04:53:13.253Z,30528.00
2018-06-30T04:54:13.281Z,31072.00
2018-06-30T04:55:13.320Z,31040.00
2018-06-30T04:56:13.356Z,31200.00
2018-06-30T04:57:13.384Z,29792.00
2018-06-30T04:58:13.415Z,27328.00
2018-06-30T04:59:13.454Z,24288.00
2018-06-30T05:00:13.476Z,21600.00
2018-06-30T05:01:13.518Z,19648.00
2018-06-30T05:02:13.545Z,18720.00
2018-06-30T05:03:13.575Z,18304.00
2018-06-30T05:04:13.610Z,18112.00
2018-06-30T05:05:13.644Z,18016.00
2018-06-30T05:06:13.676Z,18016.00
2018-06-30T05:07:13.715Z,18016.00
2018-06-30T05:08:13.747Z,18112.00
2018-06-30T05:09:13.777Z,18080.00
2018-06-30T05:10:13.807Z,18016.00
2018-06-30T05:11:13.845Z,17952.00
2018-06-30T05:12:13.880Z,17888.00
2018-06-30T05:13:13.917Z,17888.00
2018-06-30T05:14:13.949Z,17952.00
2018-06-30T05:15:13.978Z,17888.00
2018-06-30T05:16:14.014Z,17664.00
2018-06-30T05:17:14.052Z,17632.00
2018-06-30T05:18:14.088Z,17696.00
2018-06-30T05:19:14.123Z,17696.00
2018-06-30T05:20:14.152Z,17632.00
2018-06-30T05:21:14.185Z,17504.00
2018-06-30T05:22:14.218Z,17440.00
2018-06-30T05:23:14.257Z,17376.00
2018-06-30T05:24:14.297Z,17152.00
2018-06-30T05:25:14.326Z,16960.00
2018-06-30T05:26:14.360Z,16532.00
2018-06-30T05:27:14.398Z,15888.00
2018-06-30T05:28:14.434Z,14808.00
2018-06-30T05:29:14.466Z,14136.00
2018-06-30T05:30:14.501Z,13684.00
2018-06-30T05:31:14.532Z,13256.00
2018-06-30T05:32:14.566Z,12804.00
2018-06-30T05:33:14.620Z,12336.00
2018-06-30T05:34:14.637Z,11848.00
2018-06-30T05:35:14.671Z,11304.00
2018-06-30T05:36:14.703Z,10824.00
2018-06-30T05:37:14.743Z,10444.00
2018-06-30T05:38:14.774Z,10076.00
2018-06-30T05:39:14.811Z,9692.00
2018-06-30T05:40:14.844Z,9316.00
2018-06-30T05:41:14.919Z,8952.00
2018-06-30T05:42:14.907Z,8664.00
2018-06-30T05:43:14.943Z,8468.00
2018-06-30T05:44:14.977Z,8296.00
2018-06-30T05:45:15.015Z,8164.00
2018-06-30T05:46:15.048Z,8048.00
2018-06-30T05:47:15.075Z,7956.00
2018-06-30T05:48:15.107Z,7888.00
2018-06-30T05:49:15.143Z,7828.00
2018-06-30T05:50:15.173Z,7804.00
2018-06-30T05:51:15.212Z,7784.00
2018-06-30T05:52:15.243Z,7792.00
2018-06-30T05:53:15.278Z,7812.00
2018-06-30T05:54:15.304Z,7844.00
2018-06-30T05:55:15.332Z,7896.00
2018-06-30T05:56:15.363Z,7980.00
2018-06-30T05:57:15.401Z,8084.00
2018-06-30T05:58:15.433Z,8244.00
2018-06-30T05:59:15.522Z,8448.00
2018-06-30T06:00:15.492Z,8984.00
2018-06-30T06:01:15.522Z,18568.00
2018-06-30T06:02:15.552Z,33600.00
2018-06-30T06:03:15.589Z,41600.00
2018-06-30T06:04:15.620Z,41760.00
2018-06-30T06:05:15.649Z,42240.00
2018-06-30T06:06:15.682Z,41472.00
2018-06-30T06:07:15.715Z,42848.00
2018-06-30T06:08:15.747Z,44928.00
2018-06-30T06:09:15.780Z,44416.00
2018-06-30T06:10:15.811Z,43488.00
2018-06-30T06:11:15.839Z,44416.00
2018-06-30T06:12:15.875Z,47552.00
2018-06-30T06:13:15.906Z,48384.00
2018-06-30T06:14:15.937Z,48704.00
2018-06-30T06:15:15.973Z,47712.00
2018-06-30T06:16:15.998Z,45952.00
2018-06-30T06:17:16.033Z,46336.00
2018-06-30T06:18:16.064Z,47648.00
2018-06-30T06:19:16.101Z,46784.00
2018-06-30T06:20:16.135Z,44800.00
2018-06-30T06:21:16.183Z,42688.00
2018-06-30T06:22:16.194Z,42240.00
2018-06-30T06:23:16.236Z,43872.00
2018-06-30T06:24:16.264Z,42304.00
2018-06-30T06:25:16.302Z,39104.00
2018-06-30T06:26:16.329Z,39648.00
2018-06-30T06:27:16.359Z,39424.00
2018-06-30T06:28:16.392Z,36768.00
2018-06-30T06:29:16.431Z,35456.00
2018-06-30T06:30:16.463Z,22784.00
2018-06-30T06:31:16.494Z,6412.00
2018-06-30T06:32:16.531Z,3920.00
2018-06-30T06:33:16.560Z,3672.00
2018-06-30T06:34:16.591Z,3524.00
2018-06-30T06:35:16.628Z,3412.00
2018-06-30T06:36:16.674Z,3324.00
2018-06-30T06:37:16.691Z,3248.00
2018-06-30T06:38:16.722Z,3168.00
2018-06-30T06:39:16.760Z,3100.00
2018-06-30T06:40:16.793Z,3044.00
2018-06-30T06:41:16.827Z,2984.00
2018-06-30T06:42:16.858Z,2940.00
2018-06-30T06:43:16.886Z,2892.00
2018-06-30T06:44:16.919Z,2848.00
2018-06-30T06:45:16.954Z,2808.00
2018-06-30T06:46:16.984Z,2764.00
2018-06-30T06:47:17.012Z,2728.00
2018-06-30T06:48:17.043Z,2688.00
2018-06-30T06:49:17.077Z,2656.00
2018-06-30T06:50:17.108Z,2616.00
2018-06-30T06:51:17.142Z,2576.00
2018-06-30T06:52:17.204Z,2536.00
2018-06-30T06:53:17.200Z,2500.00
2018-06-30T06:54:17.229Z,2464.00
2018-06-30T06:55:17.266Z,2432.00
2018-06-30T06:56:17.352Z,2400.00
2018-06-30T06:57:17.327Z,2368.00
2018-06-30T06:58:17.354Z,2340.00
2018-06-30T06:59:17.385Z,2312.00
2018-06-30T07:00:17.418Z,2288.00
2018-06-30T07:01:17.448Z,2260.00
2018-06-30T07:02:17.474Z,2236.00
2018-06-30T07:03:17.503Z,2208.00
2018-06-30T07:04:17.536Z,2188.00
2018-06-30T07:05:17.565Z,2160.00
2018-06-30T07:06:17.598Z,2136.00
2018-06-30T07:07:17.628Z,2116.00
2018-06-30T07:08:17.659Z,2096.00
2018-06-30T07:09:17.685Z,2084.00
2018-06-30T07:10:17.720Z,2064.00
2018-06-30T07:11:17.747Z,2044.00
2018-06-30T07:12:17.774Z,2028.00
2018-06-30T07:13:17.804Z,2012.00
2018-06-30T07:14:17.827Z,1996.00
2018-06-30T07:15:17.860Z,1976.00
2018-06-30T07:16:17.894Z,1956.00
2018-06-30T07:17:18.028Z,1948.00
2018-06-30T07:18:17.947Z,1932.00
2018-06-30T07:19:17.998Z,1920.00
2018-06-30T07:20:18.006Z,1908.00
2018-06-30T07:21:18.036Z,1896.00
2018-06-30T07:22:18.068Z,1888.00
2018-06-30T07:23:18.095Z,1876.00
2018-06-30T07:24:18.123Z,1868.00
2018-06-30T07:25:18.152Z,1860.00
2018-06-30T07:26:18.183Z,1848.00
2018-06-30T07:27:18.210Z,1840.00
2018-06-30T07:28:18.240Z,1832.00
2018-06-30T07:29:18.269Z,1828.00
2018-06-30T07:30:18.295Z,1824.00
2018-06-30T07:31:18.325Z,1820.00
2018-06-30T07:32:18.352Z,1812.00
2018-06-30T07:33:18.389Z,1808.00
2018-06-30T07:34:18.405Z,1804.00
2018-06-30T07:35:18.434Z,1796.00
2018-06-30T07:36:18.466Z,1796.00
2018-06-30T07:37:18.559Z,1788.00
2018-06-30T07:38:18.526Z,1784.00
2018-06-30T07:39:18.556Z,1780.00
2018-06-30T07:40:18.580Z,1772.00
2018-06-30T07:41:18.608Z,1772.00
2018-06-30T07:42:18.639Z,1768.00
2018-06-30T07:43:18.728Z,1760.00
2018-06-30T07:44:18.695Z,1756.00
2018-06-30T07:45:18.722Z,1748.00
2018-06-30T07:46:18.745Z,1748.00
2018-06-30T07:47:18.777Z,1744.00
2018-06-30T07:48:18.805Z,1744.00
2018-06-30T07:49:18.836Z,1740.00
2018-06-30T07:50:18.910Z,1740.00
2018-06-30T07:51:18.889Z,1736.00
2018-06-30T07:52:18.914Z,1736.00
2018-06-30T07:53:18.942Z,1732.00
2018-06-30T07:54:18.979Z,1728.00
2018-06-30T07:55:19.004Z,1724.00
2018-06-30T07:56:19.030Z,1720.00
2018-06-30T07:57:19.056Z,1720.00
2018-06-30T07:58:19.084Z,1716.00
2018-06-30T07:59:19.110Z,1712.00
2018-06-30T08:00:19.139Z,1708.00
2018-06-30T08:01:19.167Z,1704.00
2018-06-30T08:02:19.196Z,1700.00
2018-06-30T08:03:19.227Z,1696.00
2018-06-30T08:04:19.250Z,1692.00
2018-06-30T08:05:19.275Z,1688.00
2018-06-30T08:06:19.309Z,1684.00
2018-06-30T08:07:19.349Z,1684.00
2018-06-30T08:08:19.365Z,1676.00
2018-06-30T08:09:19.395Z,1672.00
2018-06-30T08:10:19.414Z,1668.00
2018-06-30T08:11:19.441Z,1664.00
2018-06-30T08:12:19.475Z,1656.00
2018-06-30T08:13:19.501Z,1652.00
2018-06-30T08:14:19.531Z,1644.00
2018-06-30T08:15:19.551Z,1640.00
2018-06-30T08:16:19.576Z,1636.00
2018-06-30T08:17:19.606Z,1624.00
2018-06-30T08:18:19.636Z,1620.00
2018-06-30T08:19:19.669Z,1612.00
2018-06-30T08:20:19.689Z,1608.00
2018-06-30T08:21:19.717Z,1604.00
2018-06-30T08:22:19.746Z,1596.00
2018-06-30T08:23:19.769Z,1592.00
2018-06-30T08:24:19.805Z,1588.00
2018-06-30T08:25:19.827Z,1580.00
2018-06-30T08:26:19.849Z,1572.00
2018-06-30T08:27:19.880Z,1564.00
2018-06-30T08:28:19.908Z,1556.00
2018-06-30T08:29:19.939Z,1548.00
2018-06-30T08:30:19.958Z,1544.00
2018-06-30T08:31:19.986Z,1540.00
2018-06-30T08:32:20.017Z,1532.00
2018-06-30T08:33:20.044Z,1524.00
2018-06-30T08:34:20.112Z,1520.00
2018-06-30T08:35:20.096Z,1508.00
2018-06-30T08:36:20.160Z,1504.00
2018-06-30T08:37:20.151Z,1496.00
2018-06-30T08:38:20.182Z,1492.00
2018-06-30T08:39:20.210Z,1488.00
2018-06-30T08:40:20.234Z,1492.00
2018-06-30T08:41:20.263Z,1484.00
2018-06-30T08:42:20.286Z,1484.00
2018-06-30T08:43:20.314Z,1480.00
2018-06-30T08:44:20.341Z,1476.00
2018-06-30T08:45:20.386Z,1472.00
2018-06-30T08:46:20.395Z,1472.00
2018-06-30T08:47:20.422Z,1468.00
2018-06-30T08:48:20.445Z,1476.00
2018-06-30T08:49:20.474Z,1476.00
2018-06-30T08:50:20.505Z,1480.00
2018-06-30T08:51:20.533Z,1488.00
2018-06-30T08:52:20.554Z,1508.00
2018-06-30T08:53:20.582Z,1528.00
2018-06-30T08:54:20.612Z,1544.00
2018-06-30T08:55:20.666Z,1568.00
2018-06-30T08:56:20.665Z,1604.00
2018-06-30T08:57:20.691Z,1640.00
2018-06-30T08:58:20.712Z,1684.00
2018-06-30T08:59:20.740Z,1740.00
2018-06-30T09:00:20.772Z,1796.00
2018-06-30T09:01:20.799Z,1812.00
2018-06-30T09:02:20.822Z,1768.00
2018-06-30T09:03:20.849Z,1736.00
2018-06-30T09:04:20.873Z,1712.00
2018-06-30T09:05:20.903Z,1664.00
2018-06-30T09:06:20.983Z,1620.00
2018-06-30T09:07:20.957Z,1600.00
2018-06-30T09:08:20.983Z,1568.00
2018-06-30T09:09:21.009Z,1524.00
2018-06-30T09:10:21.038Z,1480.00
2018-06-30T09:11:21.065Z,1452.00
2018-06-30T09:12:21.116Z,1432.00
2018-06-30T09:13:21.118Z,1432.00
2018-06-30T09:14:21.140Z,1424.00
2018-06-30T09:15:21.167Z,1428.00
2018-06-30T09:16:21.198Z,1424.00
2018-06-30T09:17:21.231Z,1420.00
2018-06-30T09:18:21.247Z,1420.00
2018-06-30T09:19:21.274Z,1412.00
2018-06-30T09:20:21.337Z,1412.00
2018-06-30T09:21:21.329Z,1412.00
2018-06-30T09:22:21.361Z,1412.00
2018-06-30T09:23:21.386Z,1408.00
2018-06-30T09:24:21.404Z,1408.00
2018-06-30T09:25:21.433Z,1408.00
2018-06-30T09:26:21.462Z,1408.00
2018-06-30T09:27:21.490Z,1408.00
2018-06-30T09:28:21.519Z,1408.00
2018-06-30T09:29:21.546Z,1404.00
2018-06-30T09:30:21.567Z,1400.00
2018-06-30T09:31:21.594Z,1396.00
2018-06-30T09:32:21.624Z,1396.00
2018-06-30T09:33:21.652Z,1396.00
2018-06-30T09:34:21.675Z,1392.00
2018-06-30T09:35:21.700Z,1396.00
2018-06-30T09:36:21.724Z,1392.00
2018-06-30T09:37:21.751Z,1392.00
2018-06-30T09:38:21.780Z,1384.00
2018-06-30T09:39:21.811Z,1392.00
2018-06-30T09:40:21.833Z,1384.00
2018-06-30T09:41:21.859Z,1384.00
2018-06-30T09:42:21.893Z,1384.00
2018-06-30T09:43:21.914Z,1384.00
2018-06-30T09:44:21.997Z,1384.00
2018-06-30T09:45:21.966Z,1380.00
2018-06-30T09:46:21.990Z,1372.00
2018-06-30T09:47:22.016Z,1376.00
2018-06-30T09:48:22.044Z,1376.00
2018-06-30T09:49:22.074Z,1372.00
2018-06-30T09:50:22.092Z,1372.00
2018-06-30T09:51:22.119Z,1372.00
2018-06-30T09:52:22.146Z,1372.00
2018-06-30T09:53:22.172Z,1372.00
2018-06-30T09:54:22.203Z,1372.00
2018-06-30T09:55:22.243Z,1372.00
2018-06-30T09:56:22.249Z,1376.00
2018-06-30T09:57:22.278Z,1380.00
2018-06-30T09:58:22.306Z,1376.00
2018-06-30T09:59:22.334Z,1372.00
2018-06-30T10:00:22.359Z,1380.00
2018-06-30T10:01:22.387Z,1384.00
2018-06-30T10:02:22.408Z,1396.00
2018-06-30T10:03:22.435Z,1388.00
2018-06-30T10:04:22.463Z,1384.00
2018-06-30T10:05:22.489Z,1380.00
2018-06-30T10:06:22.511Z,1376.00
2018-06-30T10:07:22.537Z,1380.00
2018-06-30T10:08:22.566Z,1380.00
2018-06-30T10:09:22.592Z,1376.00
2018-06-30T10:10:22.621Z,1376.00
2018-06-30T10:11:22.648Z,1376.00
2018-06-30T10:12:22.668Z,1384.00
2018-06-30T10:13:22.697Z,1384.00
2018-06-30T10:14:22.724Z,1388.00
2018-06-30T10:15:22.749Z,1396.00
2018-06-30T10:16:22.778Z,1408.00
2018-06-30T10:17:22.806Z,1428.00
2018-06-30T10:18:22.826Z,1444.00
2018-06-30T10:19:22.919Z,1424.00
2018-06-30T10:20:22.881Z,1424.00
2018-06-30T10:21:22.910Z,1420.00
2018-06-30T10:22:22.930Z,1396.00
2018-06-30T10:23:22.957Z,1388.00
2018-06-30T10:24:22.983Z,1392.00
2018-06-30T10:25:23.006Z,1392.00
2018-06-30T10:26:23.035Z,1392.00
2018-06-30T10:27:23.062Z,1380.00
2018-06-30T10:28:23.086Z,1376.00
2018-06-30T10:29:23.115Z,1368.00
2018-06-30T10:30:23.142Z,1368.00
2018-06-30T10:31:23.230Z,1368.00
2018-06-30T10:32:23.192Z,1368.00
2018-06-30T10:33:23.218Z,1368.00
2018-06-30T10:34:23.239Z,1368.00
2018-06-30T10:35:23.269Z,1368.00
2018-06-30T10:36:23.296Z,1364.00
2018-06-30T10:37:23.327Z,1372.00
2018-06-30T10:38:23.345Z,1372.00
2018-06-30T10:39:23.373Z,1368.00
2018-06-30T10:40:23.398Z,1372.00
2018-06-30T10:41:23.424Z,1388.00
2018-06-30T10:42:23.455Z,1396.00
2018-06-30T10:43:23.474Z,1396.00
2018-06-30T10:44:23.510Z,1396.00
2018-06-30T10:45:23.525Z,1396.00
2018-06-30T10:46:23.556Z,1392.00
2018-06-30T10:47:23.582Z,1384.00
2018-06-30T10:48:23.609Z,1384.00
2018-06-30T10:49:23.636Z,1400.00
2018-06-30T10:50:23.657Z,1416.00
2018-06-30T10:51:23.683Z,1420.00
2018-06-30T10:52:23.713Z,1420.00
2018-06-30T10:53:23.738Z,1424.00
2018-06-30T10:54:23.763Z,1424.00
2018-06-30T10:55:23.794Z,1420.00
2018-06-30T10:56:23.810Z,1416.00
2018-06-30T10:57:23.837Z,1424.00
2018-06-30T10:58:23.873Z,1436.00
2018-06-30T10:59:23.891Z,1432.00
2018-06-30T11:00:23.975Z,1436.00
2018-06-30T11:01:23.944Z,1448.00
2018-06-30T11:02:23.972Z,1472.00
2018-06-30T11:03:23.998Z,1504.00
2018-06-30T11:04:24.024Z,1492.00
2018-06-30T11:05:24.048Z,1056.00
2018-06-30T11:06:24.072Z,1368.00
2018-06-30T11:07:24.098Z,1248.00
2018-06-30T11:08:24.129Z,1476.00
2018-06-30T11:09:24.153Z,1468.00
2018-06-30T11:10:24.174Z,1460.00
2018-06-30T11:11:24.201Z,1404.00
2018-06-30T11:12:24.225Z,1460.00
2018-06-30T11:13:24.253Z,1468.00
2018-06-30T11:14:24.279Z,1388.00
2018-06-30T11:15:24.307Z,1216.00
2018-06-30T11:16:24.332Z,1060.00
2018-06-30T11:17:24.366Z,1068.00
2018-06-30T11:18:24.384Z,1500.00
2018-06-30T11:19:24.411Z,1492.00
2018-06-30T11:20:24.435Z,1268.00
2018-06-30T11:21:24.476Z,1520.00
2018-06-30T11:22:24.492Z,1520.00
2018-06-30T11:23:24.508Z,1548.00
2018-06-30T11:24:24.540Z,1576.00
2018-06-30T11:25:24.570Z,1672.00
2018-06-30T11:26:24.583Z,1840.00
2018-06-30T11:27:24.611Z,1908.00
2018-06-30T11:28:24.638Z,1792.00
2018-06-30T11:29:24.699Z,1688.00
2018-06-30T11:30:24.697Z,1616.00
2018-06-30T11:31:24.720Z,1608.00
2018-06-30T11:32:24.739Z,1624.00
2018-06-30T11:33:24.765Z,1656.00
2018-06-30T11:34:24.795Z,1676.00
2018-06-30T11:35:24.820Z,1700.00
2018-06-30T11:36:24.849Z,1744.00
2018-06-30T11:37:24.877Z,1824.00
2018-06-30T11:38:24.901Z,1924.00
2018-06-30T11:39:24.924Z,1948.00
2018-06-30T11:40:25.019Z,1928.00
2018-06-30T11:41:24.984Z,1804.00
2018-06-30T11:42:24.997Z,1796.00
2018-06-30T11:43:25.024Z,1800.00
2018-06-30T11:44:25.059Z,1700.00
2018-06-30T11:45:25.074Z,1656.00
2018-06-30T11:46:25.105Z,1684.00
2018-06-30T11:47:25.127Z,1680.00
2018-06-30T11:48:25.154Z,1696.00
2018-06-30T11:49:25.206Z,1652.00
2018-06-30T11:50:25.283Z,1648.00
2018-06-30T11:51:25.235Z,1668.00
2018-06-30T11:52:25.258Z,1676.00
2018-06-30T11:53:25.283Z,1656.00
2018-06-30T11:54:25.306Z,1652.00
2018-06-30T11:55:25.332Z,1648.00
2018-06-30T11:56:25.360Z,1624.00
2018-06-30T11:57:25.386Z,1600.00
2018-06-30T11:58:25.406Z,1600.00
2018-06-30T11:59:25.432Z,1616.00
2018-06-30T12:00:25.461Z,1656.00
2018-06-30T12:01:25.488Z,1680.00
2018-06-30T12:02:25.516Z,1660.00
2018-06-30T12:03:25.560Z,1624.00
2018-06-30T12:04:25.562Z,1592.00
2018-06-30T12:05:25.587Z,1564.00
2018-06-30T12:06:25.617Z,1564.00
2018-06-30T12:07:25.642Z,1588.00
2018-06-30T12:08:25.669Z,1616.00
2018-06-30T12:09:25.697Z,1648.00
2018-06-30T12:10:25.719Z,1644.00
2018-06-30T12:11:25.745Z,1668.00
2018-06-30T12:12:25.768Z,1684.00
2018-06-30T12:13:25.798Z,1700.00
2018-06-30T12:14:25.824Z,1720.00
2018-06-30T12:15:25.848Z,1768.00
2018-06-30T12:16:25.874Z,1844.00
2018-06-30T12:17:25.898Z,1872.00
2018-06-30T12:18:25.920Z,1900.00